createdAt,value
2019-05-02T00:00:12.983Z,72.20
2019-05-02T00:02:41.901Z,65.20
2019-05-02T00:05:11.488Z,62.10
2019-05-02T00:07:41.847Z,61.63
2019-05-02T00:10:13.483Z,62.33
2019-05-02T00:12:43.235Z,61.00
2019-05-02T00:15:14.962Z,61.50
2019-05-02T00:17:43.586Z,64.03
2019-05-02T00:20:13.890Z,65.30
2019-05-02T00:22:42.503Z,63.40
2019-05-02T00:25:16.078Z,72.17
2019-05-02T00:27:41.894Z,74.92
2019-05-02T00:30:12.692Z,67.87
2019-05-02T00:32:41.322Z,64.53
2019-05-02T00:35:09.925Z,69.72
2019-05-02T00:37:38.552Z,66.42
2019-05-02T00:40:07.689Z,72.17
2019-05-02T00:42:36.331Z,66.47
2019-05-02T00:45:05.226Z,63.00
2019-05-02T00:47:49.814Z,64.07
2019-05-02T00:50:18.848Z,66.05
2019-05-02T00:52:47.599Z,57.90
2019-05-02T00:55:16.239Z,54.80
2019-05-02T00:57:44.701Z,61.42
2019-05-02T01:00:18.190Z,58.90
2019-05-02T01:02:49.674Z,56.50
2019-05-02T01:05:18.303Z,64.03
2019-05-02T01:07:46.921Z,61.00
2019-05-02T01:10:17.334Z,65.10
2019-05-02T01:12:46.244Z,65.10
2019-05-02T01:15:14.986Z,66.53
2019-05-02T01:17:43.507Z,63.08
2019-05-02T01:20:12.468Z,66.77
2019-05-02T01:22:41.196Z,72.20
2019-05-02T01:25:15.009Z,71.15
2019-05-02T01:27:46.873Z,62.00
2019-05-02T01:30:44.566Z,63.52
2019-05-02T01:33:28.324Z,74.55
2019-05-02T01:36:25.620Z,71.62
2019-05-02T01:38:54.159Z,75.57
2019-05-02T01:41:23.967Z,74.62
2019-05-02T01:43:55.068Z,68.05
2019-05-02T01:46:24.195Z,74.62
2019-05-02T01:48:52.857Z,75.72
2019-05-02T01:51:21.359Z,69.65
2019-05-02T01:53:49.898Z,77.92
2019-05-02T01:56:18.514Z,79.62
2019-05-02T01:58:47.042Z,73.87
2019-05-02T02:01:16.219Z,79.97
2019-05-02T02:03:46.982Z,76.53
2019-05-02T02:06:15.788Z,70.25
2019-05-02T02:08:44.528Z,70.60
2019-05-02T02:11:13.141Z,78.28
2019-05-02T02:13:41.758Z,78.25
2019-05-02T02:16:10.501Z,72.75
2019-05-02T02:18:45.235Z,69.17
2019-05-02T02:21:31.051Z,68.83
2019-05-02T02:24:06.940Z,72.80
2019-05-02T02:26:35.481Z,72.85
2019-05-02T02:29:07.884Z,67.08
2019-05-02T02:31:39.723Z,72.75
2019-05-02T02:34:05.326Z,72.50
2019-05-02T02:36:34.696Z,78.67
2019-05-02T02:39:06.832Z,80.20
2019-05-02T02:41:36.571Z,85.38
2019-05-02T02:44:33.574Z,77.42
2019-05-02T02:47:04.524Z,81.97
2019-05-02T02:49:33.066Z,80.17
2019-05-02T02:52:04.933Z,104.47
2019-05-02T02:54:36.580Z,105.80
2019-05-02T02:57:03.238Z,86.97
2019-05-02T02:59:31.755Z,88.15
2019-05-02T03:02:09.214Z,89.65
2019-05-02T03:04:30.835Z,97.27
2019-05-02T03:06:59.550Z,83.50
2019-05-02T03:09:29.101Z,81.60
2019-05-02T03:12:17.519Z,87.00
2019-05-02T03:14:51.118Z,82.90
2019-05-02T03:17:26.429Z,92.05
2019-05-02T03:19:54.333Z,81.05
2019-05-02T03:22:21.077Z,95.20
2019-05-02T03:24:49.616Z,89.97
2019-05-02T03:27:18.249Z,89.58
2019-05-02T03:29:46.864Z,83.47
2019-05-02T03:32:30.169Z,80.57
2019-05-02T03:34:51.698Z,85.75
2019-05-02T03:37:16.868Z,89.25
2019-05-02T03:39:49.534Z,80.32
2019-05-02T03:42:17.247Z,101.12
2019-05-02T03:44:54.906Z,82.27
2019-05-02T03:47:16.565Z,82.60
2019-05-02T03:49:48.539Z,83.82
2019-05-02T03:52:16.032Z,83.03
2019-05-02T03:54:49.959Z,89.37
2019-05-02T03:57:15.365Z,95.67
2019-05-02T03:59:43.988Z,99.13
2019-05-02T04:02:20.361Z,91.32
2019-05-02T04:04:45.023Z,95.07
2019-05-02T04:07:14.236Z,86.85
2019-05-02T04:09:42.957Z,84.58
2019-05-02T04:12:18.664Z,92.17
2019-05-02T04:14:42.250Z,81.22
2019-05-02T04:17:11.067Z,82.00
2019-05-02T04:19:40.309Z,74.25
2019-05-02T04:22:11.949Z,68.62
2019-05-02T04:24:40.817Z,77.72
2019-05-02T04:27:10.529Z,71.85
2019-05-02T04:29:39.293Z,77.45
2019-05-02T04:32:11.836Z,85.62
2019-05-02T04:34:38.486Z,82.95
2019-05-02T04:37:06.997Z,83.47
2019-05-02T04:39:38.846Z,79.05
2019-05-02T04:42:16.341Z,84.52
2019-05-02T04:44:47.827Z,73.10
2019-05-02T04:47:16.669Z,70.45
2019-05-02T04:49:39.294Z,67.92
2019-05-02T04:52:11.648Z,70.30
2019-05-02T04:54:39.045Z,74.77
2019-05-02T04:57:08.545Z,74.95
2019-05-02T04:59:39.505Z,77.17
2019-05-02T05:02:08.972Z,75.72
2019-05-02T05:04:42.388Z,76.75
2019-05-02T05:07:09.390Z,70.35
2019-05-02T05:09:39.919Z,68.95
2019-05-02T05:12:08.952Z,64.37
2019-05-02T05:14:41.266Z,67.65
2019-05-02T05:17:08.124Z,57.88
2019-05-02T05:19:37.347Z,62.67
2019-05-02T05:22:08.810Z,62.33
2019-05-02T05:24:42.608Z,62.73
2019-05-02T05:27:13.172Z,57.43
2019-05-02T05:29:41.953Z,69.20
2019-05-02T05:32:10.571Z,62.83
2019-05-02T05:34:39.183Z,66.92
2019-05-02T05:37:09.522Z,63.05
2019-05-02T05:39:43.208Z,64.80
2019-05-02T05:42:10.700Z,68.87
2019-05-02T05:44:39.887Z,57.48
2019-05-02T05:47:12.190Z,76.60
2019-05-02T05:49:39.716Z,54.58
2019-05-02T05:52:08.335Z,57.95
2019-05-02T05:54:38.360Z,56.33
2019-05-02T05:57:07.657Z,61.48
2019-05-02T05:59:38.030Z,56.33
2019-05-02T06:02:13.161Z,56.73
2019-05-02T06:04:38.696Z,61.60
2019-05-02T06:07:07.473Z,59.15
2019-05-02T06:09:36.012Z,54.77
2019-05-02T06:12:04.730Z,56.13
2019-05-02T06:14:34.560Z,49.33
2019-05-02T06:17:03.485Z,57.73
2019-05-02T06:19:31.993Z,50.95
2019-05-02T06:22:00.599Z,52.90
2019-05-02T06:24:29.128Z,54.15
2019-05-02T06:26:57.657Z,52.20
2019-05-02T06:29:26.275Z,60.30
2019-05-02T06:32:00.409Z,56.02
2019-05-02T06:36:57.331Z,59.00
2019-05-02T06:39:27.049Z,58.80
2019-05-02T06:41:57.514Z,54.65
2019-05-02T06:44:26.935Z,57.48
2019-05-02T06:46:59.147Z,55.08
2019-05-02T06:49:26.126Z,55.88
2019-05-02T06:51:56.217Z,53.33
2019-05-02T06:54:25.011Z,55.30
2019-05-02T06:56:53.537Z,59.83
2019-05-02T06:59:22.160Z,57.45
2019-05-02T07:01:52.344Z,57.03
2019-05-02T07:04:22.885Z,60.12
2019-05-02T07:06:58.862Z,56.60
2019-05-02T07:09:22.542Z,60.85
2019-05-02T07:11:57.473Z,64.85
2019-05-02T07:14:23.604Z,62.43
2019-05-02T07:16:58.969Z,58.65
2019-05-02T07:19:32.180Z,62.27
2019-05-02T07:22:04.182Z,58.20
2019-05-02T07:24:32.713Z,50.43
2019-05-02T07:27:02.359Z,60.48
2019-05-02T07:29:31.435Z,58.33
2019-05-02T07:32:00.060Z,68.92
2019-05-02T07:34:28.553Z,70.28
2019-05-02T07:36:57.180Z,73.42
2019-05-02T07:39:25.874Z,80.83
2019-05-02T07:41:54.483Z,74.67
2019-05-02T07:44:27.266Z,74.58
2019-05-02T07:46:56.897Z,73.05
2019-05-02T07:49:26.614Z,74.95
2019-05-02T07:51:57.637Z,74.60
2019-05-02T07:54:26.798Z,75.60
2019-05-02T07:56:55.459Z,83.60
2019-05-02T07:59:25.128Z,76.85
2019-05-02T08:01:53.897Z,79.03
2019-05-02T08:04:22.580Z,77.40
2019-05-02T08:06:51.090Z,81.32
2019-05-02T08:09:19.847Z,81.45
2019-05-02T08:11:48.520Z,86.90
2019-05-02T08:14:17.145Z,91.97
2019-05-02T08:16:45.824Z,89.17
2019-05-02T08:19:14.315Z,83.65
2019-05-02T08:21:42.816Z,82.10
2019-05-02T08:24:11.878Z,81.17
2019-05-02T08:26:58.384Z,79.97
2019-05-02T08:29:28.918Z,79.75
2019-05-02T08:31:57.712Z,76.12
2019-05-02T08:34:30.957Z,72.72
2019-05-02T08:37:03.289Z,65.47
2019-05-02T08:39:33.754Z,62.90
2019-05-02T08:42:01.338Z,64.22
2019-05-02T08:44:29.860Z,52.95
2019-05-02T08:46:58.483Z,51.90
2019-05-02T08:49:27.136Z,63.63
2019-05-02T08:51:55.741Z,50.25
2019-05-02T08:54:27.949Z,54.27
2019-05-02T08:56:59.198Z,49.27
2019-05-02T08:59:26.206Z,51.00
2019-05-02T09:01:54.994Z,46.48
2019-05-02T09:04:24.256Z,54.85
2019-05-02T09:06:58.696Z,48.75
2019-05-02T09:09:27.959Z,45.85
2019-05-02T09:12:06.884Z,47.03
2019-05-02T09:14:25.270Z,49.88
2019-05-02T09:16:53.889Z,43.23
2019-05-02T09:19:26.465Z,50.35
2019-05-02T09:21:52.863Z,49.33
2019-05-02T09:24:23.973Z,60.05
2019-05-02T09:26:52.053Z,44.83
2019-05-02T09:29:22.239Z,45.78
2019-05-02T09:31:52.694Z,43.28
2019-05-02T09:34:22.924Z,43.30
2019-05-02T09:36:52.928Z,43.30
2019-05-02T09:39:22.732Z,45.95
2019-05-02T09:41:52.655Z,46.05
2019-05-02T09:44:22.451Z,44.50
2019-05-02T09:46:53.073Z,43.42
2019-05-02T09:49:22.159Z,47.05
2019-05-02T09:51:59.175Z,41.95
2019-05-02T09:54:23.104Z,42.60
2019-05-02T09:56:52.485Z,44.00
2019-05-02T09:59:32.847Z,45.45
2019-05-02T10:02:03.379Z,44.58
2019-05-02T10:04:32.558Z,41.28
2019-05-02T10:07:02.521Z,43.90
2019-05-02T10:09:32.413Z,51.88
2019-05-02T10:12:02.112Z,46.53
2019-05-02T10:14:33.012Z,43.25
2019-05-02T10:17:07.005Z,46.37
2019-05-02T10:19:33.227Z,45.55
2019-05-02T10:22:02.075Z,50.83
2019-05-02T10:24:32.220Z,42.90
2019-05-02T10:27:04.175Z,42.90
2019-05-02T10:29:32.917Z,43.40
2019-05-02T10:32:01.896Z,46.37
2019-05-02T10:34:32.787Z,47.05
2019-05-02T10:37:02.940Z,41.28
2019-05-02T10:39:34.029Z,47.62
2019-05-02T10:42:02.375Z,40.75
2019-05-02T10:44:32.633Z,43.90
2019-05-02T10:47:02.902Z,42.20
2019-05-02T10:49:43.711Z,44.15
2019-05-02T10:52:12.369Z,44.58
2019-05-02T10:54:42.175Z,44.63
2019-05-02T10:57:12.623Z,39.53
2019-05-02T10:59:42.056Z,41.08
2019-05-02T11:02:42.485Z,39.05
2019-05-02T11:05:16.910Z,41.02
2019-05-02T11:07:47.866Z,42.10
2019-05-02T11:10:16.716Z,41.63
2019-05-02T11:12:56.323Z,46.23
2019-05-02T11:15:43.915Z,50.00
2019-05-02T11:18:13.116Z,47.27
2019-05-02T11:20:42.190Z,44.00
2019-05-02T11:23:12.675Z,42.67
2019-05-02T11:25:42.121Z,43.55
2019-05-02T11:28:12.421Z,49.23
2019-05-02T11:30:42.300Z,43.68
2019-05-02T11:33:13.352Z,41.00
2019-05-02T11:35:48.784Z,52.00
2019-05-02T11:38:25.963Z,49.27
2019-05-02T11:40:42.661Z,44.25
2019-05-02T11:43:11.617Z,44.20
2019-05-02T11:45:40.228Z,49.77
2019-05-02T11:48:11.339Z,40.12
2019-05-02T11:50:39.512Z,44.67
2019-05-02T11:53:22.276Z,48.48
2019-05-02T11:55:41.311Z,49.70
2019-05-02T11:58:10.643Z,46.10
2019-05-02T12:00:44.514Z,46.65
2019-05-02T12:03:18.390Z,46.33
2019-05-02T12:05:47.045Z,48.65
2019-05-02T12:08:15.692Z,48.92
2019-05-02T12:10:44.428Z,44.30
2019-05-02T12:13:15.930Z,37.48
2019-05-02T12:15:44.393Z,41.90
2019-05-02T12:18:13.026Z,40.05
2019-05-02T12:20:42.539Z,40.60
2019-05-02T12:23:13.000Z,39.03
2019-05-02T12:25:42.295Z,43.48
2019-05-02T12:28:11.973Z,46.28
2019-05-02T12:30:41.873Z,39.15
2019-05-02T12:33:12.256Z,45.83
2019-05-02T12:35:43.304Z,42.78
2019-05-02T12:38:12.295Z,40.95
2019-05-02T12:40:42.197Z,52.55
2019-05-02T12:43:12.029Z,39.63
2019-05-02T12:45:42.180Z,37.05
2019-05-02T12:48:12.983Z,38.78
2019-05-02T12:50:42.004Z,37.48
2019-05-02T12:53:12.615Z,38.67
2019-05-02T12:55:42.161Z,34.33
2019-05-02T12:58:12.497Z,36.95
2019-05-02T13:00:43.105Z,33.78
2019-05-02T13:03:31.691Z,31.35
2019-05-02T13:06:00.579Z,36.77
2019-05-02T13:08:29.503Z,38.88
2019-05-02T13:11:17.900Z,34.15
2019-05-02T13:13:46.690Z,37.70
2019-05-02T13:16:17.365Z,39.63
2019-05-02T13:18:45.990Z,35.40
2019-05-02T13:21:20.818Z,35.38
2019-05-02T13:24:07.529Z,41.40
2019-05-02T13:26:34.355Z,40.35
2019-05-02T13:29:03.138Z,38.55
2019-05-02T13:31:38.258Z,38.90
2019-05-02T13:34:22.258Z,41.08
2019-05-02T13:36:51.925Z,50.45
2019-05-02T13:39:32.647Z,47.35
2019-05-02T13:42:01.767Z,41.08
2019-05-02T13:44:33.108Z,47.35
2019-05-02T13:47:02.707Z,48.25
2019-05-02T13:49:32.429Z,43.23
2019-05-02T13:52:02.514Z,46.50
2019-05-02T13:54:32.960Z,44.70
2019-05-02T13:57:03.135Z,44.08
2019-05-02T13:59:33.727Z,45.83
2019-05-02T14:02:05.187Z,52.58
2019-05-02T14:04:33.957Z,47.78
2019-05-02T14:07:03.147Z,49.60
2019-05-02T14:09:50.853Z,46.55
2019-05-02T14:12:55.028Z,53.13
2019-05-02T14:15:26.761Z,52.25
2019-05-02T14:17:55.507Z,53.28
2019-05-02T14:20:24.218Z,50.67
2019-05-02T14:22:52.998Z,51.63
2019-05-02T14:25:22.336Z,50.55
2019-05-02T14:27:55.324Z,52.88
2019-05-02T14:30:36.012Z,51.75
2019-05-02T14:32:55.235Z,56.20
2019-05-02T14:35:28.302Z,56.28
2019-05-02T14:38:13.777Z,58.52
2019-05-02T14:40:53.455Z,67.35
2019-05-02T14:43:44.494Z,74.35
2019-05-02T14:46:12.461Z,77.90
2019-05-02T14:48:45.272Z,75.90
2019-05-02T14:51:16.562Z,84.22
2019-05-02T14:53:43.468Z,85.25
2019-05-02T14:56:17.699Z,85.75
2019-05-02T14:58:46.419Z,85.57
2019-05-02T15:01:17.138Z,89.17
2019-05-02T15:03:45.557Z,90.75
2019-05-02T15:06:14.183Z,84.45
2019-05-02T15:08:44.899Z,81.45
2019-05-02T15:11:13.354Z,91.70
2019-05-02T15:13:43.672Z,94.20
2019-05-02T15:16:17.768Z,90.62
2019-05-02T15:18:47.540Z,98.10
2019-05-02T15:21:22.349Z,92.78
2019-05-02T15:24:33.346Z,103.12
2019-05-02T15:27:05.530Z,100.10
2019-05-02T15:29:29.406Z,99.32
2019-05-02T15:32:16.485Z,101.20
2019-05-02T15:35:02.386Z,95.07
2019-05-02T15:37:32.160Z,98.55
2019-05-02T15:42:33.961Z,95.22
2019-05-02T15:45:05.597Z,96.67
2019-05-02T15:47:37.070Z,94.40
2019-05-02T15:50:04.523Z,102.85
2019-05-02T15:52:34.975Z,103.80
2019-05-02T15:55:04.379Z,97.35
2019-05-02T15:57:43.136Z,97.67
2019-05-02T16:00:05.773Z,95.40
2019-05-02T16:02:34.315Z,95.38
2019-05-02T16:05:05.426Z,98.45
2019-05-02T16:07:38.127Z,100.58
2019-05-02T16:10:04.801Z,87.22
2019-05-02T16:12:36.050Z,83.12
2019-05-02T16:15:12.944Z,92.50
2019-05-02T16:17:35.946Z,88.72
2019-05-02T16:20:16.770Z,78.05
2019-05-02T16:22:49.603Z,89.67
2019-05-02T16:25:20.142Z,92.35
2019-05-02T16:27:47.256Z,98.72
2019-05-02T16:30:22.139Z,106.45
2019-05-02T16:32:54.148Z,106.43
2019-05-02T16:35:23.868Z,103.78
2019-05-02T16:37:55.994Z,109.35
2019-05-02T16:40:29.754Z,114.70
2019-05-02T16:42:55.786Z,126.12
2019-05-02T16:45:24.654Z,127.45
2019-05-02T16:47:58.626Z,125.05
2019-05-02T16:50:27.468Z,159.97
2019-05-02T16:52:54.477Z,128.80
2019-05-02T16:55:26.607Z,140.45
2019-05-02T16:57:56.621Z,126.65
2019-05-02T17:00:24.869Z,171.45
2019-05-02T17:02:53.596Z,170.17
2019-05-02T17:05:22.335Z,165.20
2019-05-02T17:08:10.857Z,174.35
2019-05-02T17:10:52.086Z,153.75
2019-05-02T17:13:17.681Z,138.95
2019-05-02T17:15:46.330Z,148.38
2019-05-02T17:18:17.995Z,129.18
2019-05-02T17:20:46.970Z,107.63
2019-05-02T17:23:16.193Z,113.70
2019-05-02T17:25:44.904Z,127.05
2019-05-02T17:28:13.516Z,154.45
2019-05-02T17:30:43.062Z,160.70
2019-05-02T17:33:15.902Z,152.07
2019-05-02T17:35:49.360Z,161.30
2019-05-02T17:38:12.710Z,169.22
2019-05-02T17:40:42.205Z,154.00
2019-05-02T17:43:11.031Z,169.35
2019-05-02T17:45:40.315Z,163.40
2019-05-02T17:48:15.689Z,145.40
2019-05-02T17:50:59.550Z,140.35
2019-05-02T17:53:33.781Z,148.13
2019-05-02T17:55:59.227Z,160.57
2019-05-02T17:58:27.743Z,156.40
2019-05-02T18:01:00.162Z,173.90
2019-05-02T18:03:31.131Z,141.03
2019-05-02T18:05:59.373Z,140.10
2019-05-02T18:08:27.981Z,148.40
2019-05-02T18:11:00.137Z,136.10
2019-05-02T18:13:29.174Z,125.62
2019-05-02T18:15:57.521Z,140.75
2019-05-02T18:18:26.165Z,127.87
2019-05-02T18:20:54.803Z,130.67
2019-05-02T18:23:27.391Z,140.62
2019-05-02T18:25:57.411Z,139.95
2019-05-02T18:28:26.430Z,133.43
2019-05-02T18:30:57.181Z,106.47
2019-05-02T18:33:25.386Z,112.75
2019-05-02T18:35:54.120Z,114.67
2019-05-02T18:38:22.758Z,144.43
2019-05-02T18:40:52.450Z,140.20
2019-05-02T18:43:22.387Z,162.37
2019-05-02T18:45:51.604Z,158.60
2019-05-02T18:48:21.832Z,121.28
2019-05-02T18:50:52.616Z,136.28
2019-05-02T18:53:25.708Z,117.28
2019-05-02T18:55:52.247Z,124.47
2019-05-02T18:58:22.714Z,116.08
2019-05-02T19:00:52.101Z,119.00
2019-05-02T19:03:22.860Z,114.60
2019-05-02T19:05:56.673Z,136.90
2019-05-02T19:08:29.141Z,141.85
2019-05-02T19:11:04.744Z,134.07
2019-05-02T19:13:23.519Z,131.15
2019-05-02T19:15:53.443Z,115.55
2019-05-02T19:18:22.438Z,147.30
2019-05-02T19:21:00.342Z,134.40
2019-05-02T19:23:31.982Z,141.43
2019-05-02T19:26:02.314Z,142.93
2019-05-02T19:29:02.301Z,148.38
2019-05-02T19:31:44.401Z,121.65
2019-05-02T19:34:07.460Z,109.30
2019-05-02T19:36:36.174Z,116.17
2019-05-02T19:39:09.835Z,130.37
2019-05-02T19:41:39.021Z,113.95
2019-05-02T19:44:08.448Z,135.65
2019-05-02T19:46:38.871Z,143.65
2019-05-02T19:49:12.483Z,134.35
2019-05-02T19:51:38.388Z,136.10
2019-05-02T19:54:07.213Z,127.20
2019-05-02T19:56:45.331Z,125.92
2019-05-02T19:59:06.586Z,126.35
2019-05-02T20:01:35.392Z,108.95
2019-05-02T20:04:06.101Z,99.92
2019-05-02T20:06:34.865Z,97.50
2019-05-02T20:09:08.288Z,97.50
2019-05-02T20:11:36.317Z,91.15
2019-05-02T20:14:09.302Z,92.22
2019-05-02T20:16:45.788Z,78.45
2019-05-02T20:19:17.274Z,87.72
2019-05-02T20:21:57.149Z,74.65
2019-05-02T20:24:49.160Z,66.82
2019-05-02T20:27:15.444Z,62.38
2019-05-02T20:29:44.417Z,42.75
2019-05-02T20:32:13.129Z,40.88
2019-05-02T20:34:41.936Z,33.20
2019-05-02T20:37:12.610Z,23.22
2019-05-02T20:39:41.628Z,15.93
2019-05-02T20:42:12.103Z,16.00
2019-05-02T20:44:41.891Z,22.93
2019-05-02T20:47:14.112Z,11.30
2019-05-02T20:49:42.640Z,14.58
2019-05-02T20:52:11.937Z,8.73
2019-05-02T20:54:42.679Z,8.25
2019-05-02T20:57:11.998Z,10.53
2019-05-02T20:59:41.701Z,9.63
2019-05-02T21:02:12.242Z,10.82
2019-05-02T21:04:42.541Z,7.75
2019-05-02T21:07:19.010Z,9.95
2019-05-02T21:09:54.204Z,10.98
2019-05-02T21:12:22.910Z,11.83
2019-05-02T21:14:52.320Z,6.55
2019-05-02T21:17:22.077Z,7.75
2019-05-02T21:19:50.804Z,8.95
2019-05-02T21:22:24.157Z,6.12
2019-05-02T21:24:53.018Z,7.70
2019-05-02T21:27:21.911Z,10.32
2019-05-02T21:29:52.254Z,9.80
2019-05-02T21:32:22.926Z,13.72
2019-05-02T21:34:52.025Z,5.42
2019-05-02T21:37:22.619Z,7.05
2019-05-02T21:39:52.069Z,7.00
2019-05-02T21:42:22.556Z,8.23
2019-05-02T21:44:51.824Z,9.25
2019-05-02T21:47:22.319Z,8.13
2019-05-02T21:50:01.825Z,6.08
2019-05-02T21:52:55.967Z,10.88
2019-05-02T21:55:52.068Z,9.28
2019-05-02T21:58:21.589Z,6.97
2019-05-02T22:00:59.314Z,9.55
2019-05-02T22:03:27.849Z,8.33
2019-05-02T22:05:56.748Z,7.33
2019-05-02T22:08:25.404Z,5.87
2019-05-02T22:10:53.928Z,10.45
2019-05-02T22:13:22.573Z,8.00
2019-05-02T22:15:51.656Z,7.92
2019-05-02T22:18:21.633Z,8.75
2019-05-02T22:20:52.245Z,9.63
2019-05-02T22:23:20.911Z,12.07
2019-05-02T22:25:49.456Z,12.53
2019-05-02T22:28:18.000Z,8.20
2019-05-02T22:30:46.520Z,12.37
2019-05-02T22:33:15.041Z,8.28
2019-05-02T22:35:43.693Z,12.28
2019-05-02T22:38:28.254Z,10.58
2019-05-02T22:40:58.169Z,11.45
2019-05-02T22:43:26.684Z,9.95
2019-05-02T22:45:55.196Z,10.90
2019-05-02T22:48:23.834Z,8.80
2019-05-02T22:50:52.387Z,10.30
2019-05-02T22:53:21.605Z,9.15
2019-05-02T22:55:51.801Z,9.88
2019-05-02T22:58:21.888Z,11.08
2019-05-02T23:00:52.227Z,9.30
2019-05-02T23:03:21.501Z,10.30
2019-05-02T23:05:52.612Z,10.98
2019-05-02T23:08:21.954Z,9.73
2019-05-02T23:10:51.937Z,15.98
2019-05-02T23:13:21.976Z,9.68
2019-05-02T23:15:52.154Z,9.50
2019-05-02T23:18:22.686Z,9.98
2019-05-02T23:20:52.610Z,9.45
2019-05-02T23:23:21.583Z,9.10
2019-05-02T23:26:13.811Z,9.95
2019-05-02T23:28:44.563Z,8.35
2019-05-02T23:31:14.060Z,13.78
2019-05-02T23:33:57.913Z,11.53
2019-05-02T23:36:28.240Z,15.30
2019-05-02T23:38:57.404Z,10.05
2019-05-02T23:41:26.141Z,9.33
2019-05-02T23:43:54.880Z,11.43
2019-05-02T23:46:23.605Z,11.10
2019-05-02T23:48:52.685Z,11.68
2019-05-02T23:51:22.588Z,11.78
2019-05-02T23:53:52.794Z,12.50
2019-05-02T23:56:22.146Z,8.68
2019-05-02T23:58:51.948Z,17.02
